| Date | Time | Temp. (oF) | Dew Point (oF) | Rel. Hum. (%) | Press. (in.) | Wind Dir. | Wind Speed (mph) | Hourly Rainfall (in.) |
|
|---|---|---|---|---|---|---|---|---|---|
| 1 | 12/21 | 00:00 | 45 | 45 | 100 | 29.54 | ESE | 6 | 0.00 |
| 2 | 12/20 | 23:00 | 43 | 42 | 100 | 29.62 | ESE | 9 | 0.07 |
| 3 | 12/20 | 22:00 | 41 | 41 | 100 | 29.73 | S | 4 | 0.12 |
| 4 | 12/20 | 21:00 | 40 | 40 | 100 | 29.83 | ESE | 9 | 0.10 |
| 5 | 12/20 | 20:00 | 39 | 39 | 100 | 29.85 | ESE | 12 | 0.05 |
| 6 | 12/20 | 19:00 | 39 | 38 | 99 | 29.92 | SE | 16 | 0.00 |
| 7 | 12/20 | 18:00 | 38 | 35 | 92 | 29.97 | S | 8 | 0.00 |
| 8 | 12/20 | 17:00 | 39 | 35 | 86 | 29.97 | ESE | 10 | 0.00 |
| 9 | 12/20 | 16:00 | 41 | 33 | 73 | 30.02 | SSE | 7 | 0.00 |
| 10 | 12/20 | 15:00 | 42 | 33 | 71 | 30.06 | SSW | 8 | 0.00 |
| 11 | 12/20 | 14:00 | 42 | 32 | 68 | 30.05 | WSW | 4 | 0.00 |
| 12 | 12/20 | 13:00 | 42 | 33 | 71 | 30.09 | S | 3 | 0.00 |
| 13 | 12/20 | 12:00 | 42 | 34 | 75 | 30.10 | SE | 7 | 0.00 |
| 14 | 12/20 | 11:00 | 40 | 37 | 89 | 30.14 | ENE | 6 | 0.00 |
| 15 | 12/20 | 10:00 | 37 | 36 | 100 | 30.19 | SE | 3 | 0.00 |
| 16 | 12/20 | 09:00 | 32 | 32 | 100 | 30.21 | E | 1 | 0.00 |
| 17 | 12/20 | 08:00 | 31 | 31 | 100 | 30.22 | NE | 0 | 0.00 |
| 18 | 12/20 | 07:00 | 30 | 30 | 100 | 30.23 | SSW | 0 | 0.00 |
| 19 | 12/20 | 06:00 | 29 | 28 | 100 | 30.22 | SW | 0 | 0.00 |
| 20 | 12/20 | 05:00 | 29 | 28 | 100 | 30.22 | SE | 0 | 0.00 |
| 21 | 12/20 | 04:00 | 30 | 30 | 100 | 30.21 | N | 1 | 0.00 |
| 22 | 12/20 | 03:00 | 30 | 30 | 100 | 30.21 | ESE | 2 | 0.00 |
| 23 | 12/20 | 02:00 | 32 | 31 | 98 | 30.19 | NNE | 1 | 0.00 |
| 24 | 12/20 | 01:00 | 35 | 32 | 92 | 30.19 | NNW | 1 | 0.00 |